Time;durP1;ratioP1;P1;durP2;ratioP2;P2;SDS_P1;SDS_P2;PMS_P1;PMS_P2;Temp;Humidity;BMP_temperature;BMP_pressure;BME280_temperature;BME280_humidity;BME280_pressure;Samples;Min_cycle;Max_cycle;Signal;HPM_P1;HPM_P2
2022/09/17 00:00:41;;;;;;;5.38;2.92;;;;;;;26.28;51.32;97512.88;2073765;28;20054;-47
2022/09/17 00:01:43;;;;;;;4.78;2.72;;;;;;;26.29;51.13;97515.31;2070272;28;20512;-47
2022/09/17 00:02:45;;;;;;;7.00;2.88;;;;;;;26.26;51.56;97507.72;2071152;28;20045;-47
2022/09/17 00:03:52;;;;;;;6.68;3.70;;;;;;;26.28;51.40;97504.72;2072008;28;20045;-46
2022/09/17 00:04:53;;;;;;;9.15;3.05;;;;;;;26.29;51.21;97506.34;2073656;28;20084;-50
2022/09/17 00:06:00;;;;;;;8.63;2.65;;;;;;;26.28;50.97;97496.56;2071979;28;20053;-47
2022/09/17 00:07:01;;;;;;;11.10;3.10;;;;;;;26.28;51.15;97499.28;2066966;28;20050;-47
2022/09/17 00:08:04;;;;;;;4.25;3.25;;;;;;;26.28;51.01;97502.81;2068918;28;20046;-47
2022/09/17 00:09:06;;;;;;;9.52;3.70;;;;;;;26.26;51.20;97496.84;2072222;28;20045;-47
2022/09/17 00:10:08;;;;;;;5.55;3.55;;;;;;;26.26;51.58;97494.13;2070964;28;20038;-48
2022/09/17 00:11:12;;;;;;;9.73;3.03;;;;;;;26.27;51.07;97492.22;2069132;28;20466;-47
2022/09/17 00:12:14;;;;;;;5.55;2.45;;;;;;;26.27;51.50;97493.03;2071150;28;20049;-50
2022/09/17 00:13:15;;;;;;;6.70;3.08;;;;;;;26.26;51.47;97490.59;2070439;28;20066;-49
2022/09/17 00:14:17;;;;;;;3.45;3.03;;;;;;;26.27;51.58;97481.34;2069194;28;20049;-48
2022/09/17 00:15:18;;;;;;;7.28;3.65;;;;;;;26.27;51.37;97487.59;2074217;28;20188;-47
2022/09/17 00:16:26;;;;;;;2.92;2.28;;;;;;;26.27;51.31;97475.91;2069563;28;20065;-47
2022/09/17 00:17:27;;;;;;;7.75;3.30;;;;;;;26.26;51.16;97482.44;2070453;28;20049;-47
2022/09/17 00:18:28;;;;;;;8.93;2.67;;;;;;;26.25;51.34;97478.09;2070474;28;20853;-47
2022/09/17 00:19:31;;;;;;;7.57;3.13;;;;;;;26.27;51.54;97479.47;2071504;28;20096;-47
2022/09/17 00:20:32;;;;;;;8.90;3.38;;;;;;;26.27;51.53;97475.91;2071849;28;20065;-48
2022/09/17 00:21:33;;;;;;;5.78;2.83;;;;;;;26.25;51.06;97476.19;2071178;28;20045;-47
2022/09/17 00:22:35;;;;;;;6.03;2.95;;;;;;;26.25;51.11;97480.81;2079830;28;20617;-46
2022/09/17 00:23:36;;;;;;;7.93;2.63;;;;;;;26.25;51.54;97478.09;2071875;28;20110;-50
2022/09/17 00:24:37;;;;;;;5.93;2.83;;;;;;;26.27;51.04;97484.06;2069721;28;20736;-47
2022/09/17 00:25:39;;;;;;;7.80;3.88;;;;;;;26.27;51.37;97478.63;2072286;28;20061;-47
2022/09/17 00:26:41;;;;;;;4.93;2.95;;;;;;;26.27;51.08;97481.34;2076539;28;20045;-48
2022/09/17 00:27:42;;;;;;;7.80;3.05;;;;;;;26.26;51.56;97474.28;2074410;28;20049;-48
2022/09/17 00:28:47;;;;;;;4.25;2.00;;;;;;;26.26;51.12;97469.66;2073630;28;20041;-48
2022/09/17 00:29:47;;;;;;;5.80;2.70;;;;;;;26.27;51.30;97471.31;2077949;28;20109;-47
2022/09/17 00:30:49;;;;;;;7.25;3.15;;;;;;;26.27;50.94;97478.63;2077436;28;20057;-47
2022/09/17 00:31:51;;;;;;;8.45;4.03;;;;;;;26.25;51.25;97473.47;2078194;28;20529;-47
2022/09/17 00:32:52;;;;;;;4.38;2.85;;;;;;;26.26;51.54;97468.84;2079227;28;20052;-48
2022/09/17 00:33:54;;;;;;;4.57;3.15;;;;;;;26.26;51.43;97456.06;2080137;28;20513;-48
2022/09/17 00:34:56;;;;;;;4.07;2.63;;;;;;;26.27;51.07;97463.16;2079267;28;20169;-47
2022/09/17 00:35:59;;;;;;;4.82;2.45;;;;;;;26.27;51.17;97454.16;2079787;28;20053;-50
2022/09/17 00:36:59;;;;;;;4.10;2.60;;;;;;;26.24;51.66;97463.72;2074062;28;20057;-48
2022/09/17 00:38:01;;;;;;;7.10;2.75;;;;;;;26.26;51.38;97458.78;2078087;28;20400;-50
2022/09/17 00:39:03;;;;;;;11.07;3.20;;;;;;;26.26;51.21;97457.97;2075250;28;20130;-47
2022/09/17 00:40:06;;;;;;;4.72;2.65;;;;;;;26.26;51.46;97458.78;2077924;28;20048;-46
2022/09/17 00:41:07;;;;;;;3.67;2.42;;;;;;;26.26;51.62;97461.50;2077717;28;20045;-46
2022/09/17 00:42:10;;;;;;;4.95;2.78;;;;;;;26.27;51.11;97462.31;2081038;28;20053;-46
2022/09/17 00:43:11;;;;;;;6.00;3.45;;;;;;;26.23;51.59;97458.53;2079347;28;20049;-47
2022/09/17 00:44:46;;;;;;;4.38;3.15;;;;;;;26.20;51.40;97464.53;2080869;28;20056;-46
2022/09/17 00:45:47;;;;;;;7.10;3.33;;;;;;;26.21;51.35;97458.00;2078657;28;20103;-48
2022/09/17 00:46:50;;;;;;;5.32;2.97;;;;;;;26.24;51.47;97455.56;2079454;28;20138;-47
2022/09/17 00:47:57;;;;;;;5.13;3.10;;;;;;;26.24;51.68;97443.84;2076526;28;20495;-48
2022/09/17 00:49:00;;;;;;;10.95;4.28;;;;;;;26.23;51.29;97447.69;2078209;28;20645;-47
2022/09/17 00:50:07;;;;;;;6.55;2.47;;;;;;;26.21;51.57;97445.22;2078343;28;20069;-46
2022/09/17 00:51:09;;;;;;;9.82;2.80;;;;;;;26.20;51.75;97438.19;2078664;28;20045;-48
2022/09/17 00:52:15;;;;;;;6.22;3.83;;;;;;;26.22;51.31;97440.63;2082432;28;20045;-47
2022/09/17 00:53:20;;;;;;;5.97;2.58;;;;;;;26.21;51.41;97433.53;2076976;28;20503;-47
2022/09/17 00:54:20;;;;;;;6.88;3.20;;;;;;;26.20;51.47;97440.09;2075235;28;21039;-47
2022/09/17 00:55:27;;;;;;;10.65;3.17;;;;;;;26.20;51.28;97437.38;2074738;28;20045;-47
2022/09/17 00:56:31;;;;;;;6.22;3.10;;;;;;;26.22;51.22;97436.00;2075213;28;20057;-46
2022/09/17 00:57:32;;;;;;;6.03;3.20;;;;;;;26.22;51.57;97435.19;2075582;28;20117;-48
2022/09/17 00:58:36;;;;;;;6.65;3.30;;;;;;;26.24;51.07;97436.53;2082257;28;20041;-47
2022/09/17 00:59:38;;;;;;;5.25;2.78;;;;;;;26.22;51.45;97433.28;2080828;28;20055;-47
2022/09/17 01:00:40;;;;;;;8.65;3.75;;;;;;;26.21;51.44;97428.91;2081104;28;20114;-47
2022/09/17 01:01:41;;;;;;;9.50;3.17;;;;;;;26.20;51.17;97429.22;2077453;28;20075;-47
2022/09/17 01:02:43;;;;;;;5.88;2.97;;;;;;;26.19;51.58;97427.59;2072007;28;20080;-47
2022/09/17 01:03:44;;;;;;;6.80;2.90;;;;;;;26.19;51.17;97425.69;2070805;28;20050;-48
2022/09/17 01:04:46;;;;;;;6.45;3.38;;;;;;;26.20;51.53;97426.50;2069970;28;20530;-46
2022/09/17 01:06:01;;;;;;;6.05;3.42;;;;;;;26.20;51.44;97423.78;2066554;28;20050;-47
2022/09/17 01:07:08;;;;;;;5.25;3.67;;;;;;;26.19;51.66;97433.03;2074659;28;20108;-47
2022/09/17 01:08:21;;;;;;;4.47;2.47;;;;;;;26.18;51.14;97425.97;2073444;28;20050;-47
2022/09/17 01:09:35;;;;;;;5.90;3.00;;;;;;;26.17;51.12;97427.06;2073768;28;20056;-48
2022/09/17 01:10:54;;;;;;;6.80;2.95;;;;;;;26.16;51.65;97428.13;2072687;28;20050;-47
2022/09/17 01:12:09;;;;;;;5.18;3.08;;;;;;;26.15;51.25;97421.09;2077110;28;20055;-47
2022/09/17 01:13:22;;;;;;;3.40;2.40;;;;;;;26.14;51.59;97422.19;2077864;28;20581;-47
2022/09/17 01:14:37;;;;;;;8.25;3.10;;;;;;;26.14;51.78;97423.00;2077774;28;20714;-49
2022/09/17 01:15:47;;;;;;;6.82;2.85;;;;;;;26.17;51.30;97427.88;2079086;28;20049;-47
2022/09/17 01:16:56;;;;;;;4.90;2.63;;;;;;;26.16;51.46;97426.25;2077038;28;20041;-49
2022/09/17 01:18:11;;;;;;;12.90;3.70;;;;;;;26.16;51.45;97420.81;2078659;28;20053;-47
2022/09/17 01:19:36;;;;;;;5.00;2.58;;;;;;;26.14;51.85;97423.00;2077552;28;20080;-47
2022/09/17 01:21:12;;;;;;;5.45;3.17;;;;;;;26.13;51.84;97423.28;2077580;28;20072;-48
2022/09/17 01:22:23;;;;;;;7.15;2.60;;;;;;;26.14;51.74;97422.19;2072369;28;20037;-48
2022/09/17 01:23:48;;;;;;;4.07;2.47;;;;;;;26.13;51.82;97426.00;2076297;28;20045;-47
2022/09/17 01:25:06;;;;;;;4.85;3.15;;;;;;;26.15;51.22;97423.81;2073481;28;21887;-48
2022/09/17 01:26:27;;;;;;;3.13;2.83;;;;;;;26.11;51.94;97418.13;2078916;28;20577;-48
2022/09/17 01:27:56;;;;;;;;;;;;;;;26.01;51.81;97419.00;2083141;28;20135;-46
2022/09/17 01:29:09;;;;;;;2.58;2.22;;;;;;;26.03;51.47;97411.38;2044074;28;19970;-47
2022/09/17 01:30:26;;;;;;;4.85;2.92;;;;;;;26.05;51.35;97422.00;2073642;28;20715;-47
2022/09/17 01:31:37;;;;;;;5.28;2.63;;;;;;;26.08;51.76;97416.00;2078622;28;20065;-47
2022/09/17 01:32:39;;;;;;;;;;;;;;;26.02;51.56;97422.53;2079593;28;20135;-47
2022/09/17 01:33:46;;;;;;;6.78;2.58;;;;;;;26.05;51.62;97422.78;2080003;28;19986;-46
2022/09/17 01:34:56;;;;;;;5.22;2.70;;;;;;;26.10;51.73;97412.97;2076870;28;20049;-46
2022/09/17 01:36:11;;;;;;;9.15;3.75;;;;;;;26.11;51.66;97411.91;2080741;28;20052;-46
2022/09/17 01:37:16;;;;;;;7.25;2.92;;;;;;;26.12;51.43;97410.78;2078127;28;20108;-47
2022/09/17 01:38:25;;;;;;;8.68;4.38;;;;;;;26.08;51.39;97414.06;2078535;28;20138;-48
2022/09/17 01:39:34;;;;;;;6.82;3.10;;;;;;;26.11;51.22;97407.28;2080958;28;20049;-46
2022/09/17 01:40:41;;;;;;;5.68;3.00;;;;;;;26.12;51.21;97414.31;2076987;28;20048;-48
2022/09/17 01:41:47;;;;;;;4.43;2.50;;;;;;;26.13;51.68;97405.06;2073444;28;20053;-47
2022/09/17 01:42:57;;;;;;;6.40;2.92;;;;;;;26.13;51.64;97399.63;2073787;28;20045;-49
2022/09/17 01:44:05;;;;;;;8.70;3.42;;;;;;;26.12;51.76;97403.44;2077471;28;20050;-49
2022/09/17 01:45:13;;;;;;;6.60;3.40;;;;;;;26.12;51.23;97403.44;2078711;28;20600;-46
2022/09/17 01:46:21;;;;;;;4.00;2.90;;;;;;;26.10;51.46;97400.19;2076423;28;20151;-47
2022/09/17 01:47:26;;;;;;;7.20;3.10;;;;;;;26.12;51.30;97395.28;2074680;28;20068;-47
2022/09/17 01:48:32;;;;;;;6.80;3.20;;;;;;;26.11;51.38;97404.56;2078178;28;20049;-46
2022/09/17 01:49:36;;;;;;;8.48;3.28;;;;;;;26.05;51.14;97403.78;2074838;28;20049;-47
2022/09/17 01:50:42;;;;;;;3.70;2.10;;;;;;;26.08;51.69;97405.13;2078222;28;20568;-47
2022/09/17 01:51:48;;;;;;;5.18;3.25;;;;;;;26.10;51.63;97404.81;2079728;28;20049;-47
2022/09/17 01:52:52;;;;;;;8.77;3.05;;;;;;;26.08;51.55;97405.94;2082476;28;20060;-47
2022/09/17 01:53:58;;;;;;;5.47;3.33;;;;;;;26.09;50.99;97406.72;2079754;28;20061;-47
2022/09/17 01:55:04;;;;;;;7.32;2.72;;;;;;;26.09;51.58;97404.00;2077893;28;20057;-47
2022/09/17 01:56:09;;;;;;;11.10;3.63;;;;;;;26.06;51.26;97408.09;2070494;28;20048;-46
2022/09/17 01:57:15;;;;;;;4.32;2.70;;;;;;;26.08;51.31;97405.13;2075543;28;20638;-49
2022/09/17 01:58:22;;;;;;;5.15;2.40;;;;;;;26.10;51.10;97402.91;2077076;28;20060;-46
2022/09/17 01:59:29;;;;;;;2.75;2.25;;;;;;;26.09;51.70;97401.28;2077280;28;20049;-47
2022/09/17 02:00:31;;;;;;;4.95;2.75;;;;;;;26.08;51.39;97402.41;2077939;28;20048;-49
2022/09/17 02:01:37;;;;;;;4.72;2.95;;;;;;;26.08;51.42;97399.69;2076506;28;20046;-47
2022/09/17 02:02:45;;;;;;;5.43;2.75;;;;;;;26.07;51.75;97404.28;2073200;28;20049;-50
2022/09/17 02:03:53;;;;;;;7.00;3.78;;;;;;;26.05;51.40;97400.25;2075609;28;20053;-46
2022/09/17 02:05:00;;;;;;;6.28;2.80;;;;;;;26.07;51.52;97404.28;2078720;28;20140;-47
2022/09/17 02:06:08;;;;;;;5.47;2.63;;;;;;;26.11;51.61;97401.03;2074568;28;20134;-46
2022/09/17 02:07:19;;;;;;;4.72;2.85;;;;;;;26.10;51.48;97404.81;2078188;28;20049;-47
2022/09/17 02:08:22;;;;;;;4.32;2.53;;;;;;;26.08;51.68;97397.78;2075822;28;20617;-48
2022/09/17 02:09:30;;;;;;;4.05;2.78;;;;;;;26.10;51.54;97396.66;2080988;28;20523;-47
2022/09/17 02:10:35;;;;;;;5.85;2.95;;;;;;;26.08;51.56;97400.50;2078279;28;20056;-47
2022/09/17 02:11:40;;;;;;;6.13;3.15;;;;;;;26.10;51.44;97399.38;2080003;28;20491;-47
2022/09/17 02:12:45;;;;;;;4.80;3.15;;;;;;;26.10;51.55;97399.38;2070400;28;20550;-46
2022/09/17 02:13:52;;;;;;;4.50;2.65;;;;;;;26.08;51.44;97397.78;2065378;28;20054;-48
2022/09/17 02:14:57;;;;;;;5.82;3.53;;;;;;;26.11;51.75;97390.16;2069665;28;20061;-46
2022/09/17 02:16:05;;;;;;;6.88;3.10;;;;;;;26.10;51.61;97383.88;2067476;28;20053;-47
2022/09/17 02:17:14;;;;;;;3.95;2.97;;;;;;;26.09;51.44;97390.44;2069762;28;20052;-49
2022/09/17 02:18:26;;;;;;;4.90;2.60;;;;;;;26.10;51.73;97388.50;2066306;28;20099;-47
2022/09/17 02:19:30;;;;;;;7.25;3.05;;;;;;;26.11;51.29;97395.59;2066153;28;20621;-47
2022/09/17 02:20:40;;;;;;;2.42;2.22;;;;;;;26.08;51.84;97388.81;2066750;28;20056;-48
2022/09/17 02:21:46;;;;;;;6.03;2.75;;;;;;;26.10;51.47;97396.66;2068100;28;20054;-48
2022/09/17 02:22:51;;;;;;;4.53;2.40;;;;;;;26.10;51.47;97385.78;2068675;28;20046;-46
2022/09/17 02:23:59;;;;;;;5.70;2.70;;;;;;;26.10;51.10;97386.59;2062740;28;20061;-49
2022/09/17 02:25:06;;;;;;;6.50;3.17;;;;;;;26.05;51.36;97382.03;2067110;28;20053;-47
2022/09/17 02:26:10;;;;;;;4.70;2.90;;;;;;;26.09;51.21;97387.72;2069252;28;20053;-46
2022/09/17 02:27:21;;;;;;;6.28;3.53;;;;;;;26.07;51.61;97379.81;2068787;28;20076;-47
2022/09/17 02:28:28;;;;;;;4.93;2.63;;;;;;;26.08;51.93;97381.47;2068314;28;20050;-47
2022/09/17 02:29:34;;;;;;;5.70;3.78;;;;;;;26.08;51.53;97381.47;2067293;28;20057;-48
2022/09/17 02:30:35;;;;;;;3.65;2.88;;;;;;;26.08;51.96;97376.03;2070006;28;20041;-46
2022/09/17 02:31:38;;;;;;;4.28;2.45;;;;;;;26.05;51.95;97371.16;2070826;28;20476;-47
2022/09/17 02:32:41;;;;;;;6.60;2.72;;;;;;;26.10;51.37;97377.66;2078530;28;20458;-48
2022/09/17 02:33:48;;;;;;;6.00;2.95;;;;;;;26.09;51.78;97374.13;2075427;28;20140;-47
2022/09/17 02:34:49;;;;;;;5.28;2.78;;;;;;;26.10;51.21;97377.66;2074990;28;20675;-48
2022/09/17 02:35:51;;;;;;;4.32;2.53;;;;;;;26.08;51.34;97367.88;2076243;28;20079;-46
2022/09/17 02:36:52;;;;;;;7.03;2.78;;;;;;;26.07;51.23;97362.72;2079693;28;20048;-48
2022/09/17 02:37:54;;;;;;;4.72;2.53;;;;;;;26.07;51.46;97358.09;2076910;28;20049;-49
2022/09/17 02:39:00;;;;;;;4.45;2.67;;;;;;;26.08;51.64;97357.00;2077252;28;20102;-46
2022/09/17 02:40:02;;;;;;;4.90;3.03;;;;;;;26.03;51.63;97354.31;2075999;28;20167;-48
2022/09/17 02:41:12;;;;;;;7.40;2.80;;;;;;;26.05;51.32;97354.88;2074249;28;20131;-47
2022/09/17 02:42:22;;;;;;;5.45;2.83;;;;;;;26.05;51.35;97360.31;2078729;28;20055;-50
2022/09/17 02:43:33;;;;;;;3.70;2.58;;;;;;;26.08;51.49;97351.56;2075125;28;20096;-50
2022/09/17 02:44:42;;;;;;;8.13;2.90;;;;;;;26.06;51.55;97344.81;2075919;28;20101;-46
2022/09/17 02:45:53;;;;;;;5.80;2.95;;;;;;;26.04;51.87;97347.78;2076670;28;20565;-52
2022/09/17 02:47:07;;;;;;;;;;;;;;;25.96;51.97;97342.16;2077256;28;20076;-46
2022/09/17 02:48:35;;;;;;;3.97;2.33;;;;;;;25.97;51.62;97341.88;2076222;28;19960;-48
2022/09/17 02:49:52;;;;;;;5.13;2.78;;;;;;;25.99;51.98;97334.28;2081139;28;20103;-49
2022/09/17 02:51:17;;;;;;;7.90;3.33;;;;;;;26.01;51.61;97325.81;2068181;28;20136;-46
2022/09/17 02:52:31;;;;;;;3.67;2.15;;;;;;;26.02;51.66;97330.97;2069345;28;20124;-49
2022/09/17 02:53:39;;;;;;;5.30;3.17;;;;;;;26.04;51.58;97325.25;2069464;28;20049;-48
2022/09/17 02:54:47;;;;;;;6.88;2.78;;;;;;;26.01;51.75;97321.19;2063674;28;20057;-50
2022/09/17 02:55:59;;;;;;;4.38;2.40;;;;;;;26.05;51.61;97329.59;2064523;28;20067;-50
2022/09/17 02:57:12;;;;;;;7.00;3.22;;;;;;;26.04;51.54;97327.97;2070936;28;20046;-48
2022/09/17 02:58:24;;;;;;;5.93;2.92;;;;;;;26.04;51.69;97326.06;2061918;28;20981;-49
2022/09/17 02:59:31;;;;;;;8.23;2.55;;;;;;;26.01;51.90;97321.19;2067317;28;20158;-49
2022/09/17 03:00:34;;;;;;;4.40;2.70;;;;;;;26.04;51.54;97319.81;2069974;28;20053;-49
2022/09/17 03:01:41;;;;;;;8.90;3.33;;;;;;;26.05;51.70;97327.69;2069491;28;20053;-49
2022/09/17 03:02:46;;;;;;;6.05;2.42;;;;;;;26.01;51.61;97328.53;2079366;28;20057;-45
2022/09/17 03:03:50;;;;;;;7.05;2.85;;;;;;;26.04;51.96;97319.81;2075196;28;20045;-52
2022/09/17 03:04:54;;;;;;;4.90;2.40;;;;;;;26.05;51.48;97314.09;2078570;28;20091;-49
2022/09/17 03:05:55;;;;;;;5.55;2.90;;;;;;;26.04;51.81;97306.22;2079625;28;20116;-49
2022/09/17 03:06:58;;;;;;;5.28;2.92;;;;;;;26.05;51.49;97316.03;2079572;28;20114;-48
2022/09/17 03:07:59;;;;;;;7.45;3.13;;;;;;;26.00;51.77;97310.63;2077876;28;20076;-46
2022/09/17 03:09:01;;;;;;;3.20;2.45;;;;;;;25.99;51.78;97307.09;2078017;28;20495;-49
2022/09/17 03:10:02;;;;;;;6.72;2.67;;;;;;;26.04;51.37;97312.47;2074352;28;21320;-48
2022/09/17 03:11:05;;;;;;;4.97;2.60;;;;;;;26.03;51.48;97310.84;2076192;28;20053;-45
2022/09/17 03:12:06;;;;;;;4.00;2.60;;;;;;;26.06;51.40;97312.19;2075994;28;20076;-51
2022/09/17 03:13:07;;;;;;;5.43;2.67;;;;;;;26.04;52.02;97306.22;2074509;28;20041;-48
2022/09/17 03:14:08;;;;;;;4.55;2.97;;;;;;;26.01;51.57;97302.16;2076297;28;20053;-46
2022/09/17 03:15:10;;;;;;;4.47;2.92;;;;;;;26.04;51.36;97301.59;2077881;28;20041;-46
2022/09/17 03:16:11;;;;;;;3.50;2.50;;;;;;;26.03;51.45;97291.84;2078005;28;20060;-48
2022/09/17 03:17:13;;;;;;;3.55;1.98;;;;;;;26.03;51.37;97297.28;2078033;28;20056;-53
2022/09/17 03:18:14;;;;;;;5.60;2.90;;;;;;;26.04;51.56;97300.78;2077989;28;21144;-48
2022/09/17 03:19:17;;;;;;;5.03;2.42;;;;;;;26.00;51.52;97297.84;2076453;28;20064;-47
2022/09/17 03:20:18;;;;;;;5.85;3.00;;;;;;;25.98;51.45;97293.78;2076628;28;20763;-49
2022/09/17 03:21:20;;;;;;;5.60;2.63;;;;;;;26.01;51.71;97304.09;2075826;28;20087;-48
2022/09/17 03:22:21;;;;;;;5.03;2.80;;;;;;;26.03;51.89;97300.00;2077982;28;20049;-48
2022/09/17 03:23:23;;;;;;;4.13;2.63;;;;;;;26.04;51.77;97304.31;2077053;28;20542;-53
2022/09/17 03:24:23;;;;;;;4.25;2.55;;;;;;;26.02;51.80;97306.53;2077508;28;20171;-50
2022/09/17 03:25:25;;;;;;;5.65;2.42;;;;;;;26.02;51.41;97301.09;2073632;28;20056;-50
2022/09/17 03:26:26;;;;;;;5.50;2.25;;;;;;;26.03;51.76;97296.47;2076493;28;20080;-47
2022/09/17 03:27:28;;;;;;;3.58;2.47;;;;;;;26.04;51.60;97298.09;2081784;28;20551;-49
2022/09/17 03:28:28;;;;;;;4.47;2.75;;;;;;;26.02;51.44;97301.09;2076048;28;20889;-50
2022/09/17 03:29:30;;;;;;;3.65;2.72;;;;;;;26.02;51.34;97300.25;2076392;28;20052;-48
2022/09/17 03:30:31;;;;;;;4.40;2.47;;;;;;;26.01;51.43;97295.94;2076304;28;20118;-50
2022/09/17 03:31:32;;;;;;;4.20;2.42;;;;;;;25.99;51.67;97298.94;2077157;28;20131;-48
2022/09/17 03:32:33;;;;;;;4.03;1.95;;;;;;;25.95;52.04;97291.66;2077687;28;20053;-49
2022/09/17 03:33:35;;;;;;;5.15;2.70;;;;;;;25.98;51.44;97291.06;2072145;28;20045;-48
2022/09/17 03:34:37;;;;;;;8.95;2.80;;;;;;;25.98;52.01;97291.88;2075993;28;20049;-51
2022/09/17 03:35:42;;;;;;;4.13;2.22;;;;;;;26.00;51.48;97292.41;2077586;28;20076;-47
2022/09/17 03:36:44;;;;;;;5.22;2.88;;;;;;;25.96;51.55;97291.34;2073389;28;20057;-51
2022/09/17 03:37:46;;;;;;;7.38;3.15;;;;;;;26.00;51.68;97295.13;2076535;28;20491;-48
2022/09/17 03:38:47;;;;;;;5.47;2.45;;;;;;;26.00;51.51;97294.31;2066277;28;20053;-51
2022/09/17 03:39:48;;;;;;;3.10;2.00;;;;;;;26.00;51.75;97294.31;2074132;28;20143;-48
2022/09/17 03:41:00;;;;;;;3.90;2.22;;;;;;;25.93;51.64;97297.34;2075387;28;20053;-51
2022/09/17 03:42:00;;;;;;;4.57;2.35;;;;;;;25.92;52.16;97292.22;2076473;28;20166;-47
2022/09/17 03:43:02;;;;;;;5.20;2.80;;;;;;;25.93;51.73;97291.91;2075333;28;20748;-48
2022/09/17 03:44:03;;;;;;;3.60;2.35;;;;;;;25.97;51.91;97292.97;2076725;28;20090;-52
2022/09/17 03:45:05;;;;;;;3.95;2.45;;;;;;;25.96;51.64;97295.97;2072261;28;20111;-46
2022/09/17 03:46:06;;;;;;;3.60;2.45;;;;;;;25.99;52.00;97289.97;2073638;28;20898;-50
2022/09/17 03:47:08;;;;;;;5.65;2.92;;;;;;;26.00;51.88;97284.25;2076148;28;20053;-48
2022/09/17 03:48:08;;;;;;;3.85;2.53;;;;;;;25.95;52.03;97276.16;2075957;28;20049;-48
2022/09/17 03:49:10;;;;;;;4.43;3.05;;;;;;;25.95;51.57;97287.00;2074171;28;20045;-47
2022/09/17 03:50:12;;;;;;;4.85;2.58;;;;;;;26.00;51.60;97278.03;2078588;28;20072;-48
2022/09/17 03:51:14;;;;;;;3.75;2.17;;;;;;;26.00;51.91;97281.53;2077887;28;20046;-49
2022/09/17 03:52:14;;;;;;;3.85;2.67;;;;;;;25.95;51.56;97273.44;2069893;28;20056;-48
2022/09/17 03:53:17;;;;;;;4.70;2.42;;;;;;;25.95;51.84;97275.34;2074070;28;20489;-48
2022/09/17 03:54:17;;;;;;;6.38;3.45;;;;;;;25.97;51.55;97271.25;2076055;28;20053;-49
2022/09/17 03:55:19;;;;;;;3.30;2.20;;;;;;;25.99;51.76;97269.06;2072706;28;20057;-49
2022/09/17 03:56:19;;;;;;;4.63;2.83;;;;;;;26.00;51.93;97267.97;2073940;28;20579;-52
2022/09/17 03:57:22;;;;;;;5.53;2.42;;;;;;;25.98;51.28;97267.44;2076967;28;20057;-48
2022/09/17 03:58:22;;;;;;;5.75;2.83;;;;;;;25.98;51.69;97256.56;2076513;28;21045;-47
2022/09/17 03:59:25;;;;;;;8.50;3.45;;;;;;;25.99;51.66;97260.91;2076861;28;20119;-48
2022/09/17 04:00:25;;;;;;;6.13;2.60;;;;;;;26.00;51.06;97265.25;2074044;28;20045;-50
2022/09/17 04:01:28;;;;;;;5.63;2.58;;;;;;;25.99;51.30;97263.63;2077828;28;20112;-48
2022/09/17 04:02:29;;;;;;;6.55;2.90;;;;;;;25.99;51.07;97262.81;2077493;28;20137;-48
2022/09/17 04:03:31;;;;;;;4.78;2.22;;;;;;;25.97;51.27;97256.88;2076099;28;20168;-50
2022/09/17 04:04:32;;;;;;;5.03;3.15;;;;;;;25.98;51.45;97261.19;2075605;28;20050;-48
2022/09/17 04:05:35;;;;;;;4.60;2.40;;;;;;;25.98;51.23;97256.56;2077298;28;20046;-50
2022/09/17 04:06:35;;;;;;;4.65;3.03;;;;;;;25.96;51.32;97250.59;2078569;28;20084;-51
2022/09/17 04:07:39;;;;;;;6.80;2.83;;;;;;;25.95;51.18;97254.41;2077682;28;20063;-49
2022/09/17 04:08:39;;;;;;;3.80;2.42;;;;;;;25.95;51.55;97254.41;2075139;28;20053;-53
2022/09/17 04:09:41;;;;;;;3.35;1.95;;;;;;;25.95;51.42;97257.13;2075552;28;20057;-48
2022/09/17 04:10:43;;;;;;;5.88;3.22;;;;;;;25.96;51.24;97256.03;2075374;28;20685;-50
2022/09/17 04:11:45;;;;;;;9.27;2.75;;;;;;;25.97;51.40;97256.88;2077604;28;20790;-46
2022/09/17 04:12:46;;;;;;;7.07;3.20;;;;;;;25.93;51.84;97253.88;2075156;28;20059;-50
2022/09/17 04:13:47;;;;;;;5.60;2.50;;;;;;;25.93;51.49;97256.59;2078182;28;20084;-50
2022/09/17 04:14:48;;;;;;;3.70;2.50;;;;;;;25.97;51.63;97251.44;2075613;28;20138;-52
2022/09/17 04:15:50;;;;;;;3.63;2.35;;;;;;;25.97;51.88;97259.56;2078447;28;20789;-49
2022/09/17 04:16:51;;;;;;;4.63;2.97;;;;;;;25.97;51.67;97254.94;2075445;28;20295;-50
2022/09/17 04:17:56;;;;;;;5.28;3.03;;;;;;;25.97;51.91;97254.94;2076794;28;20045;-51
2022/09/17 04:18:57;;;;;;;3.25;1.83;;;;;;;25.96;51.33;97252.50;2074722;28;20598;-49
2022/09/17 04:19:59;;;;;;;6.07;2.63;;;;;;;25.96;51.46;97247.06;2077722;28;20140;-53
2022/09/17 04:21:01;;;;;;;5.35;2.67;;;;;;;25.97;51.54;97241.38;2070821;28;20115;-50
2022/09/17 04:22:03;;;;;;;8.40;3.03;;;;;;;25.92;51.80;97246.84;2078453;28;20076;-49
2022/09/17 04:23:05;;;;;;;4.15;2.78;;;;;;;25.94;51.74;97244.66;2076034;28;20052;-48
2022/09/17 04:24:07;;;;;;;5.57;3.00;;;;;;;25.93;51.65;97248.44;2074790;28;20086;-50
2022/09/17 04:25:10;;;;;;;9.32;2.35;;;;;;;25.95;51.34;97256.31;2077694;28;20052;-46
2022/09/17 04:26:11;;;;;;;7.47;2.63;;;;;;;25.95;51.21;97257.13;2076207;28;20098;-50
2022/09/17 04:27:12;;;;;;;5.25;2.95;;;;;;;25.94;51.62;97250.09;2075245;28;20056;-51
2022/09/17 04:28:14;;;;;;;5.47;2.63;;;;;;;25.95;51.80;97256.31;2075406;28;20984;-52
2022/09/17 04:29:15;;;;;;;7.05;3.28;;;;;;;25.95;51.48;97254.41;2079705;28;20048;-51
2022/09/17 04:30:17;;;;;;;5.60;2.55;;;;;;;25.93;51.65;97248.44;2074067;28;20132;-49
2022/09/17 04:31:21;;;;;;;4.32;2.15;;;;;;;25.92;51.58;97251.47;2075486;28;20045;-46
2022/09/17 04:32:22;;;;;;;3.45;2.38;;;;;;;25.93;51.97;97239.50;2075600;28;20050;-50
2022/09/17 04:33:23;;;;;;;4.78;2.38;;;;;;;25.88;51.74;97234.91;2075749;28;20665;-50
2022/09/17 04:34:24;;;;;;;6.22;3.05;;;;;;;25.92;51.33;97235.16;2077185;28;20056;-46
2022/09/17 04:35:26;;;;;;;2.80;2.10;;;;;;;25.93;51.66;97231.34;2074997;28;20068;-49
2022/09/17 04:36:28;;;;;;;5.22;3.15;;;;;;;25.93;51.37;97226.72;2076762;28;20053;-51
2022/09/17 04:37:30;;;;;;;4.82;2.88;;;;;;;25.90;51.28;97232.72;2077097;28;20046;-50
2022/09/17 04:38:32;;;;;;;6.13;3.17;;;;;;;25.92;51.15;97235.97;2076007;28;20140;-47
2022/09/17 04:39:34;;;;;;;5.95;2.67;;;;;;;25.92;51.31;97227.81;2074884;28;20052;-47
2022/09/17 04:40:35;;;;;;;5.80;2.70;;;;;;;25.90;51.57;97226.50;2070977;28;20045;-50
2022/09/17 04:41:36;;;;;;;5.63;2.97;;;;;;;25.89;52.06;97225.69;2077476;28;23148;-47
2022/09/17 04:42:37;;;;;;;4.90;2.88;;;;;;;25.89;51.78;97220.25;2076699;28;20046;-50
2022/09/17 04:43:39;;;;;;;4.57;3.03;;;;;;;25.87;51.80;97227.88;2075052;28;20923;-49
2022/09/17 04:44:40;;;;;;;3.60;2.03;;;;;;;25.87;52.09;97222.44;2075905;28;20049;-52
2022/09/17 04:45:41;;;;;;;7.43;2.88;;;;;;;25.87;51.97;97222.44;2077774;28;20690;-48
2022/09/17 04:46:42;;;;;;;4.82;2.25;;;;;;;25.87;51.67;97216.19;2076392;28;20057;-52
2022/09/17 04:47:44;;;;;;;3.78;2.65;;;;;;;25.86;51.68;97215.38;2077224;28;20045;-48
2022/09/17 04:48:45;;;;;;;4.95;2.50;;;;;;;25.85;51.75;97219.19;2075442;28;20847;-52
2022/09/17 04:49:46;;;;;;;3.65;2.40;;;;;;;25.88;51.52;97215.09;2077043;28;20096;-46
2022/09/17 04:50:47;;;;;;;6.53;3.05;;;;;;;25.84;51.54;97214.84;2076379;28;20061;-49
2022/09/17 04:51:50;;;;;;;5.65;2.83;;;;;;;25.87;51.71;97206.13;2076446;28;20473;-49
2022/09/17 04:52:51;;;;;;;4.82;2.88;;;;;;;25.88;51.56;97205.03;2077588;28;20057;-50
2022/09/17 04:53:52;;;;;;;9.18;2.90;;;;;;;25.90;51.51;97207.47;2076305;28;20083;-46
2022/09/17 04:54:53;;;;;;;4.00;2.85;;;;;;;25.91;51.60;97212.63;2074466;28;20659;-48
2022/09/17 04:55:55;;;;;;;5.13;2.80;;;;;;;25.88;50.97;97206.94;2071128;28;20149;-50
2022/09/17 04:56:55;;;;;;;5.88;2.55;;;;;;;25.88;51.47;97209.66;2078838;28;20048;-46
2022/09/17 04:57:58;;;;;;;8.55;3.17;;;;;;;25.88;51.56;97207.75;2079627;28;20102;-49
2022/09/17 04:58:58;;;;;;;5.40;2.70;;;;;;;25.89;51.45;97206.66;2078744;28;20056;-48
2022/09/17 05:00:01;;;;;;;6.20;2.65;;;;;;;25.89;51.52;97209.38;2077428;28;20885;-50
2022/09/17 05:01:01;;;;;;;5.93;2.63;;;;;;;25.85;51.25;97205.59;2074025;28;20053;-52
2022/09/17 05:02:03;;;;;;;4.97;2.60;;;;;;;25.83;51.49;97203.19;2075921;28;20125;-50
2022/09/17 05:03:04;;;;;;;5.82;3.10;;;;;;;25.86;51.42;97199.09;2073216;28;20066;-49
2022/09/17 05:04:05;;;;;;;7.60;2.97;;;;;;;25.85;51.33;97197.44;2078019;28;20045;-48
2022/09/17 05:05:07;;;;;;;4.22;3.03;;;;;;;25.83;51.67;97196.94;2076668;28;20107;-51